createdAt,value
2022-11-21T00:01:25.473Z,20.13
2022-11-21T00:03:53.095Z,19.42
2022-11-21T00:06:20.748Z,18.08
2022-11-21T00:08:48.149Z,19.25
2022-11-21T00:11:16.110Z,18.33
2022-11-21T00:13:43.955Z,19.10
2022-11-21T00:16:14.546Z,17.67
2022-11-21T00:18:43.900Z,18.77
2022-11-21T00:21:20.502Z,17.35
2022-11-21T00:23:48.168Z,16.98
2022-11-21T00:26:16.766Z,16.10
2022-11-21T00:28:44.862Z,17.15
2022-11-21T00:31:23.416Z,16.77
2022-11-21T00:33:50.836Z,17.05
2022-11-21T00:36:18.230Z,16.13
2022-11-21T00:38:46.656Z,17.17
2022-11-21T00:41:14.381Z,16.90
2022-11-21T00:43:41.805Z,15.60
2022-11-21T00:46:09.205Z,16.08
2022-11-21T00:48:36.608Z,14.63
2022-11-21T00:51:04.070Z,14.02
2022-11-21T00:53:31.633Z,13.25
2022-11-21T00:55:59.089Z,14.05
2022-11-21T00:58:27.341Z,13.07
2022-11-21T01:01:06.812Z,13.73
2022-11-21T01:03:35.469Z,12.98
2022-11-21T01:06:06.253Z,12.52
2022-11-21T01:08:36.829Z,11.82
2022-11-21T01:11:05.905Z,12.23
2022-11-21T01:13:34.649Z,12.90
2022-11-21T01:16:14.458Z,13.95
2022-11-21T01:18:42.050Z,15.48
2022-11-21T01:21:18.538Z,14.15
2022-11-21T01:23:46.418Z,14.23
2022-11-21T01:26:16.632Z,15.50
2022-11-21T01:28:44.363Z,17.50
2022-11-21T01:31:17.042Z,17.17
2022-11-21T01:33:44.512Z,17.67
2022-11-21T01:36:23.180Z,16.42
2022-11-21T01:38:52.809Z,16.75
2022-11-21T01:41:23.325Z,16.80
2022-11-21T01:43:51.090Z,16.90
2022-11-21T01:46:23.026Z,17.38
2022-11-21T01:51:47.327Z,17.08
2022-11-21T01:54:20.253Z,17.35
2022-11-21T01:56:53.462Z,17.33
2022-11-21T01:59:30.546Z,17.13
2022-11-21T02:02:00.251Z,17.20
2022-11-21T02:04:32.855Z,17.73
2022-11-21T02:07:03.418Z,18.00
2022-11-21T02:09:33.242Z,17.20
2022-11-21T02:12:26.742Z,16.02
2022-11-21T02:14:55.706Z,16.83
2022-11-21T02:17:23.103Z,16.90
2022-11-21T02:19:54.318Z,17.23
2022-11-21T02:22:38.238Z,17.13
2022-11-21T02:25:10.145Z,17.48
2022-11-21T02:30:09.668Z,16.55
2022-11-21T02:35:09.504Z,17.15
2022-11-21T02:37:37.652Z,17.42
2022-11-21T02:40:28.106Z,17.25
2022-11-21T02:43:01.155Z,16.45
2022-11-21T02:45:44.953Z,16.08
2022-11-21T02:48:13.298Z,17.05
2022-11-21T02:50:49.545Z,16.75
2022-11-21T02:53:18.881Z,16.77
2022-11-21T02:55:46.913Z,16.70
2022-11-21T02:58:14.366Z,17.02
2022-11-21T03:00:43.695Z,16.15
2022-11-21T03:03:11.150Z,15.75
2022-11-21T03:05:39.620Z,16.02
2022-11-21T03:08:07.851Z,15.70
2022-11-21T03:10:35.250Z,14.85
2022-11-21T03:13:02.597Z,14.23
2022-11-21T03:15:33.137Z,15.07
2022-11-21T03:18:03.054Z,14.55
2022-11-21T03:20:32.329Z,15.43
2022-11-21T03:22:59.719Z,15.48
2022-11-21T03:25:27.307Z,14.13
2022-11-21T03:27:54.666Z,15.73
2022-11-21T03:30:23.539Z,15.15
2022-11-21T03:32:51.276Z,14.85
2022-11-21T03:35:18.638Z,15.10
2022-11-21T03:37:49.224Z,15.88
2022-11-21T03:40:16.710Z,15.73
2022-11-21T03:42:44.354Z,15.02
2022-11-21T03:45:11.849Z,15.20
2022-11-21T03:47:51.400Z,14.45
2022-11-21T03:50:20.950Z,16.20
2022-11-21T03:52:51.337Z,16.08
2022-11-21T03:55:18.856Z,15.93
2022-11-21T03:57:46.432Z,15.93
2022-11-21T04:00:14.521Z,16.23
2022-11-21T04:02:41.932Z,16.42
2022-11-21T04:05:09.511Z,104.68
2022-11-21T04:07:37.037Z,19.75
2022-11-21T04:10:04.783Z,16.25
2022-11-21T04:12:34.651Z,16.35
2022-11-21T04:15:02.187Z,16.98
2022-11-21T04:17:29.692Z,17.60
2022-11-21T04:19:57.086Z,16.42
2022-11-21T04:22:24.423Z,16.92
2022-11-21T04:24:51.888Z,15.98
2022-11-21T04:27:19.269Z,16.52
2022-11-21T04:29:46.676Z,15.90
2022-11-21T04:32:14.062Z,15.88
2022-11-21T04:34:42.179Z,16.05
2022-11-21T04:37:11.758Z,16.38
2022-11-21T04:39:39.374Z,15.82
2022-11-21T04:42:06.709Z,15.70
2022-11-21T04:44:34.097Z,15.32
2022-11-21T04:47:05.370Z,14.70
2022-11-21T04:49:33.450Z,15.98
2022-11-21T04:52:00.822Z,14.77
2022-11-21T04:54:31.183Z,16.25
2022-11-21T04:56:58.835Z,16.90
2022-11-21T04:59:26.301Z,16.60
2022-11-21T05:01:53.716Z,16.67
2022-11-21T05:04:21.156Z,14.70
2022-11-21T05:06:48.513Z,16.05
2022-11-21T05:09:15.847Z,14.43
2022-11-21T05:12:01.936Z,14.77
2022-11-21T05:14:29.723Z,15.65
2022-11-21T05:16:57.361Z,12.27
2022-11-21T05:19:24.841Z,12.00
2022-11-21T05:21:52.358Z,11.60
2022-11-21T05:24:19.754Z,12.25
2022-11-21T05:26:49.913Z,11.90
2022-11-21T05:29:17.401Z,11.55
2022-11-21T05:31:44.819Z,12.18
2022-11-21T05:34:12.288Z,10.98
2022-11-21T05:36:39.613Z,10.55
2022-11-21T05:39:07.130Z,10.85
2022-11-21T05:41:34.505Z,10.38
2022-11-21T05:44:01.969Z,10.68
2022-11-21T05:46:29.373Z,10.18
2022-11-21T05:48:56.817Z,10.52
2022-11-21T05:51:24.355Z,10.10
2022-11-21T05:53:51.793Z,10.13
2022-11-21T05:56:19.860Z,10.18
2022-11-21T05:58:47.643Z,10.70
2022-11-21T06:01:15.468Z,10.32
2022-11-21T06:03:43.229Z,10.18
2022-11-21T06:06:12.421Z,9.80
2022-11-21T06:08:42.684Z,9.90
2022-11-21T06:11:13.761Z,9.80
2022-11-21T06:13:41.912Z,9.90
2022-11-21T06:16:12.097Z,8.98
2022-11-21T06:18:43.707Z,9.32
2022-11-21T06:21:24.966Z,8.63
2022-11-21T06:23:54.297Z,9.23
2022-11-21T06:26:26.234Z,8.98
2022-11-21T06:31:27.153Z,7.95
2022-11-21T06:33:57.074Z,8.93
2022-11-21T06:36:25.336Z,9.07
2022-11-21T06:38:54.935Z,8.93
2022-11-21T06:41:30.241Z,8.52
2022-11-21T06:44:01.530Z,9.50
2022-11-21T06:46:29.089Z,8.85
2022-11-21T06:48:56.458Z,10.40
2022-11-21T06:51:24.829Z,10.40
2022-11-21T06:53:55.946Z,9.40
2022-11-21T06:56:24.802Z,9.15
2022-11-21T06:58:52.796Z,10.98
2022-11-21T07:01:20.245Z,9.77
2022-11-21T07:03:47.664Z,9.00
2022-11-21T07:06:15.181Z,11.02
2022-11-21T07:08:42.617Z,10.73
2022-11-21T07:11:28.059Z,10.27
2022-11-21T07:13:56.485Z,9.48
2022-11-21T07:16:26.313Z,10.07
2022-11-21T07:18:53.966Z,10.88
2022-11-21T07:21:21.324Z,10.32
2022-11-21T07:23:48.803Z,10.77
2022-11-21T07:26:16.161Z,10.52
2022-11-21T07:28:43.572Z,10.35
2022-11-21T07:31:13.763Z,11.23
2022-11-21T07:33:43.622Z,11.95
2022-11-21T07:36:12.568Z,12.23
2022-11-21T07:38:41.390Z,11.13
2022-11-21T07:41:10.262Z,10.60
2022-11-21T07:43:37.802Z,10.30
2022-11-21T07:46:18.029Z,10.25
2022-11-21T07:48:45.471Z,11.20
2022-11-21T07:51:13.066Z,10.90
2022-11-21T07:53:43.174Z,10.75
2022-11-21T07:56:10.575Z,10.80
2022-11-21T07:58:38.039Z,11.32
2022-11-21T08:01:06.795Z,10.85
2022-11-21T08:03:35.035Z,11.85
2022-11-21T08:06:04.456Z,11.60
2022-11-21T08:08:31.912Z,13.27
2022-11-21T08:10:59.295Z,13.65
2022-11-21T08:13:29.031Z,14.73
2022-11-21T08:15:56.452Z,14.80
2022-11-21T08:18:24.110Z,14.88
2022-11-21T08:20:51.504Z,15.30
2022-11-21T08:23:18.857Z,16.20
2022-11-21T08:25:46.339Z,16.25
2022-11-21T08:28:13.913Z,16.85
2022-11-21T08:30:41.398Z,18.30
2022-11-21T08:33:08.867Z,18.35
2022-11-21T08:35:39.328Z,16.80
2022-11-21T08:38:06.842Z,17.17
2022-11-21T08:40:35.470Z,16.45
2022-11-21T08:43:08.137Z,17.85
2022-11-21T08:45:36.971Z,19.00
2022-11-21T08:48:08.812Z,18.45
2022-11-21T08:50:36.156Z,18.98
2022-11-21T08:53:04.014Z,19.77
2022-11-21T08:55:31.736Z,19.38
2022-11-21T08:57:59.480Z,19.30
2022-11-21T09:00:27.445Z,19.58
2022-11-21T09:02:54.887Z,19.00
2022-11-21T09:05:25.097Z,20.48
2022-11-21T09:07:58.870Z,20.42
2022-11-21T09:10:27.416Z,20.35
2022-11-21T09:12:58.205Z,21.73
2022-11-21T09:15:44.582Z,20.77
2022-11-21T09:18:12.248Z,21.80
2022-11-21T09:20:43.059Z,22.48
2022-11-21T09:23:12.947Z,22.90
2022-11-21T09:25:40.682Z,22.20
2022-11-21T09:28:10.126Z,22.27
2022-11-21T09:30:38.361Z,23.40
2022-11-21T09:33:07.667Z,23.00
2022-11-21T09:35:35.172Z,23.45
2022-11-21T09:38:02.810Z,25.00
2022-11-21T09:40:31.550Z,22.98
2022-11-21T09:43:23.314Z,23.20
2022-11-21T09:45:52.987Z,23.27
2022-11-21T09:48:36.229Z,23.52
2022-11-21T09:51:11.609Z,23.70
2022-11-21T09:54:03.800Z,24.95
2022-11-21T09:56:36.143Z,28.33
2022-11-21T09:59:21.613Z,25.05
2022-11-21T10:01:49.027Z,24.13
2022-11-21T10:04:16.546Z,24.88
2022-11-21T10:07:26.242Z,24.70
2022-11-21T10:10:17.259Z,25.05
2022-11-21T10:13:30.312Z,24.60
2022-11-21T10:16:09.453Z,25.67
2022-11-21T10:19:01.395Z,24.15
2022-11-21T10:22:07.524Z,24.30
2022-11-21T10:24:36.448Z,27.40
2022-11-21T10:27:18.477Z,27.55
2022-11-21T10:30:00.178Z,26.48
2022-11-21T10:32:38.593Z,26.40
2022-11-21T10:35:16.790Z,28.35
2022-11-21T10:37:49.002Z,27.90
2022-11-21T10:40:21.886Z,29.13
2022-11-21T10:42:59.939Z,27.95
2022-11-21T10:45:27.283Z,28.15
2022-11-21T10:47:54.636Z,26.52
2022-11-21T10:50:54.569Z,26.02
2022-11-21T10:53:43.128Z,26.25
2022-11-21T10:56:21.579Z,27.08
2022-11-21T10:58:59.356Z,27.77
2022-11-21T11:01:32.454Z,28.23
2022-11-21T11:04:29.153Z,28.15
2022-11-21T11:07:20.539Z,28.38
2022-11-21T11:09:48.022Z,25.52
2022-11-21T11:12:52.218Z,29.05
2022-11-21T11:15:22.871Z,29.05
2022-11-21T11:18:14.449Z,29.70
2022-11-21T11:20:45.014Z,29.23
2022-11-21T11:23:22.485Z,31.40
2022-11-21T11:26:00.513Z,30.20
2022-11-21T11:28:35.560Z,30.55
2022-11-21T11:31:03.534Z,30.98
2022-11-21T11:33:39.561Z,31.80
2022-11-21T11:36:29.003Z,32.22
2022-11-21T11:38:59.098Z,33.45
2022-11-21T11:42:06.666Z,31.13
2022-11-21T11:45:20.689Z,31.33
2022-11-21T11:47:58.243Z,30.23
2022-11-21T11:50:50.675Z,29.13
2022-11-21T11:56:01.826Z,29.77
2022-11-21T11:58:39.835Z,30.40
2022-11-21T12:01:33.557Z,29.85
2022-11-21T12:04:16.007Z,30.45
2022-11-21T12:07:59.596Z,30.52
2022-11-21T12:09:39.766Z,31.50
2022-11-21T12:12:28.496Z,30.35
2022-11-21T12:15:34.361Z,29.63
2022-11-21T12:18:13.562Z,28.58
2022-11-21T12:20:57.473Z,29.50
2022-11-21T12:23:32.497Z,30.88
2022-11-21T12:26:15.109Z,30.83
2022-11-21T12:29:04.387Z,30.77
2022-11-21T12:31:59.864Z,30.42
2022-11-21T12:34:42.160Z,31.10
2022-11-21T12:37:19.348Z,32.08
2022-11-21T12:40:00.628Z,33.67
2022-11-21T12:42:50.441Z,33.17
2022-11-21T12:45:47.304Z,32.90
2022-11-21T12:48:49.443Z,32.33
2022-11-21T12:52:08.987Z,33.30
2022-11-21T12:54:45.406Z,32.55
2022-11-21T12:57:14.154Z,33.50
2022-11-21T13:00:07.711Z,31.88
2022-11-21T13:02:41.259Z,33.40
2022-11-21T13:05:17.834Z,34.45
2022-11-21T13:07:46.382Z,36.40
2022-11-21T13:10:17.260Z,33.90
2022-11-21T13:13:26.443Z,34.88
2022-11-21T13:16:08.270Z,34.08
2022-11-21T13:18:48.957Z,37.28
2022-11-21T13:21:55.106Z,35.58
2022-11-21T13:24:47.736Z,34.55
2022-11-21T13:27:39.398Z,34.95
2022-11-21T13:32:46.478Z,34.75
2022-11-21T13:35:21.490Z,34.10
2022-11-21T13:37:51.853Z,34.10
2022-11-21T13:40:28.516Z,34.25
2022-11-21T13:43:32.635Z,32.10
2022-11-21T13:46:03.810Z,32.90
2022-11-21T13:48:39.894Z,34.05
2022-11-21T13:51:39.628Z,35.05
2022-11-21T13:54:19.682Z,35.97
2022-11-21T13:57:27.505Z,35.80
2022-11-21T14:00:23.702Z,37.15
2022-11-21T14:03:22.486Z,36.67
2022-11-21T14:05:55.943Z,36.00
2022-11-21T14:08:27.916Z,36.75
2022-11-21T14:11:01.269Z,34.50
2022-11-21T14:13:37.351Z,34.72
2022-11-21T14:16:41.879Z,33.58
2022-11-21T14:19:17.849Z,34.30
2022-11-21T14:21:46.939Z,35.28
2022-11-21T14:24:18.782Z,32.92
2022-11-21T14:26:49.428Z,32.88
2022-11-21T14:29:37.409Z,34.72
2022-11-21T14:32:05.017Z,34.60
2022-11-21T14:34:33.226Z,32.88
2022-11-21T14:37:04.689Z,34.20
2022-11-21T14:39:44.033Z,34.15
2022-11-21T14:42:15.510Z,33.90
2022-11-21T14:44:43.450Z,33.38
2022-11-21T14:47:25.033Z,35.63
2022-11-21T14:52:31.624Z,33.90
2022-11-21T14:55:29.213Z,36.55
2022-11-21T14:57:55.549Z,38.35
2022-11-21T15:03:22.243Z,36.97
2022-11-21T15:06:08.260Z,39.63
2022-11-21T15:09:33.360Z,36.88
2022-11-21T15:11:36.154Z,37.92
2022-11-21T15:14:16.015Z,38.60
2022-11-21T15:16:47.954Z,39.22
2022-11-21T15:19:27.691Z,41.70
2022-11-21T15:21:57.935Z,40.08
2022-11-21T15:24:30.132Z,40.65
2022-11-21T15:26:59.002Z,40.47
2022-11-21T15:29:29.233Z,40.53
2022-11-21T15:32:16.610Z,40.00
2022-11-21T15:34:44.769Z,40.97
2022-11-21T15:37:15.721Z,42.20
2022-11-21T15:39:45.164Z,41.25
2022-11-21T15:42:31.380Z,41.83
2022-11-21T15:45:03.401Z,41.22
2022-11-21T15:47:31.526Z,40.53
2022-11-21T15:49:58.938Z,44.33
2022-11-21T15:52:26.477Z,44.20
2022-11-21T15:54:55.421Z,42.90
2022-11-21T15:57:23.049Z,43.58
2022-11-21T15:59:50.529Z,42.70
2022-11-21T16:02:18.181Z,43.15
2022-11-21T16:04:45.623Z,42.13
2022-11-21T16:07:13.133Z,42.03
2022-11-21T16:09:42.095Z,44.13
2022-11-21T16:12:09.496Z,42.83
2022-11-21T16:14:36.901Z,42.45
2022-11-21T16:17:05.754Z,42.67
2022-11-21T16:19:33.187Z,43.95
2022-11-21T16:22:00.637Z,44.30
2022-11-21T16:24:28.498Z,43.97
2022-11-21T16:26:57.199Z,44.08
2022-11-21T16:29:24.525Z,43.35
2022-11-21T16:31:52.364Z,43.45
2022-11-21T16:34:20.246Z,44.72
2022-11-21T16:36:47.649Z,44.55
2022-11-21T16:39:18.187Z,43.17
2022-11-21T16:41:47.382Z,42.85
2022-11-21T16:44:16.582Z,40.72
2022-11-21T16:46:48.120Z,40.42
2022-11-21T16:49:15.466Z,39.70
2022-11-21T16:51:43.109Z,38.00
2022-11-21T16:54:10.639Z,38.53
2022-11-21T16:56:38.236Z,36.15
2022-11-21T16:59:05.738Z,34.45
2022-11-21T17:01:33.750Z,33.95
2022-11-21T17:04:01.235Z,35.13
2022-11-21T17:06:30.501Z,33.75
2022-11-21T17:09:04.221Z,31.65
2022-11-21T17:11:32.047Z,29.55
2022-11-21T17:14:06.172Z,28.58
2022-11-21T17:16:34.668Z,26.55
2022-11-21T17:19:03.555Z,24.75
2022-11-21T17:21:34.562Z,25.23
2022-11-21T17:24:02.054Z,25.67
2022-11-21T17:26:30.291Z,24.00
2022-11-21T17:29:03.560Z,22.20
2022-11-21T17:31:31.822Z,22.50
2022-11-21T17:34:00.919Z,22.73
2022-11-21T17:36:30.585Z,22.08
2022-11-21T17:39:00.611Z,20.52
2022-11-21T17:41:28.087Z,21.85
2022-11-21T17:43:58.225Z,20.50
2022-11-21T17:46:26.376Z,20.65
2022-11-21T17:48:58.047Z,20.00
2022-11-21T17:51:29.330Z,19.38
2022-11-21T17:53:57.376Z,19.58
2022-11-21T17:56:26.834Z,19.42
2022-11-21T17:58:54.671Z,19.17
2022-11-21T18:01:22.358Z,19.30
2022-11-21T18:03:58.629Z,19.25
2022-11-21T18:06:28.445Z,18.88
2022-11-21T18:08:58.554Z,19.50
2022-11-21T18:11:37.600Z,18.95
2022-11-21T18:14:08.172Z,17.90
2022-11-21T18:16:35.794Z,18.48
2022-11-21T18:19:03.897Z,19.08
2022-11-21T18:21:33.708Z,20.10
2022-11-21T18:24:01.096Z,18.13
2022-11-21T18:26:31.064Z,18.35
2022-11-21T18:29:28.450Z,18.23
2022-11-21T18:31:48.716Z,17.92
2022-11-21T18:34:16.136Z,17.80
2022-11-21T18:36:43.554Z,17.60
2022-11-21T18:39:14.735Z,17.77
2022-11-21T18:41:42.866Z,17.42
2022-11-21T18:44:12.703Z,17.25
2022-11-21T18:46:42.065Z,17.15
2022-11-21T18:49:09.808Z,16.55
2022-11-21T18:51:37.211Z,17.80
2022-11-21T18:54:11.153Z,17.27
2022-11-21T18:56:39.862Z,17.13
2022-11-21T18:59:07.973Z,16.98
2022-11-21T19:01:37.483Z,16.63
2022-11-21T19:04:07.746Z,16.00
2022-11-21T19:06:35.354Z,17.33
2022-11-21T19:09:04.385Z,17.05
2022-11-21T19:11:31.830Z,17.50
2022-11-21T19:14:00.800Z,16.60
2022-11-21T19:16:31.034Z,17.35
2022-11-21T19:21:47.240Z,17.35
2022-11-21T19:24:15.104Z,18.33
2022-11-21T19:26:43.186Z,17.45
2022-11-21T19:29:10.902Z,16.77
2022-11-21T19:31:44.537Z,17.30
2022-11-21T19:34:15.893Z,16.08
2022-11-21T19:36:44.172Z,16.60
2022-11-21T19:39:11.881Z,16.77
2022-11-21T19:41:39.488Z,16.90
2022-11-21T19:44:06.924Z,17.13
2022-11-21T19:46:39.153Z,17.48
2022-11-21T19:49:08.395Z,17.95
2022-11-21T19:51:41.285Z,17.98
2022-11-21T19:54:10.949Z,18.02
2022-11-21T19:56:38.412Z,18.63
2022-11-21T19:59:06.091Z,18.63
2022-11-21T20:01:34.811Z,18.23
2022-11-21T20:04:04.549Z,18.70
2022-11-21T20:06:37.703Z,17.33
2022-11-21T20:09:15.846Z,17.98
2022-11-21T20:11:45.393Z,17.42
2022-11-21T20:14:21.140Z,18.40
2022-11-21T20:16:50.868Z,17.50
2022-11-21T20:19:20.601Z,18.15
2022-11-21T20:21:48.494Z,17.55
2022-11-21T20:24:17.183Z,18.58
2022-11-21T20:26:46.375Z,17.90
2022-11-21T20:29:14.778Z,16.75
2022-11-21T20:31:48.550Z,17.83
2022-11-21T20:34:16.226Z,17.30
2022-11-21T20:36:44.244Z,16.10
2022-11-21T20:39:16.989Z,16.98
2022-11-21T20:41:45.544Z,17.65
2022-11-21T20:47:03.305Z,17.92
2022-11-21T20:49:31.060Z,16.77
2022-11-21T20:54:46.141Z,15.85
2022-11-21T20:57:15.463Z,16.25
2022-11-21T20:59:43.708Z,15.98
2022-11-21T21:02:14.732Z,17.17
2022-11-21T21:04:42.348Z,17.40
2022-11-21T21:07:10.008Z,17.65
2022-11-21T21:09:37.563Z,17.52
2022-11-21T21:12:05.730Z,16.83
2022-11-21T21:14:35.527Z,18.10
2022-11-21T21:17:02.875Z,18.20
2022-11-21T21:19:30.607Z,18.23
2022-11-21T21:21:58.205Z,18.63
2022-11-21T21:24:25.689Z,17.83
2022-11-21T21:26:53.090Z,17.98
2022-11-21T21:29:21.175Z,18.25
2022-11-21T21:31:52.841Z,19.00
2022-11-21T21:36:48.877Z,17.63
2022-11-21T21:39:16.363Z,18.33
2022-11-21T21:41:46.236Z,18.20
2022-11-21T21:44:14.807Z,17.05
2022-11-21T21:46:42.413Z,19.08
2022-11-21T21:49:09.823Z,18.85
2022-11-21T21:51:37.717Z,23.60
2022-11-21T21:54:06.491Z,25.80
2022-11-21T21:56:34.394Z,28.55
2022-11-21T21:59:02.097Z,30.80
2022-11-21T22:01:32.823Z,31.88
2022-11-21T22:04:03.174Z,31.15
2022-11-21T22:06:33.029Z,32.60
2022-11-21T22:09:00.895Z,31.92
2022-11-21T22:11:30.815Z,33.83
2022-11-21T22:14:05.866Z,32.95
2022-11-21T22:16:33.814Z,33.42
2022-11-21T22:19:01.396Z,33.15
2022-11-21T22:21:35.113Z,34.33
2022-11-21T22:26:53.599Z,34.00
2022-11-21T22:29:21.110Z,34.50
2022-11-21T22:31:51.632Z,34.08
2022-11-21T22:34:19.075Z,33.55
2022-11-21T22:36:47.467Z,32.33
2022-11-21T22:39:17.612Z,33.70
2022-11-21T22:41:45.081Z,30.02
2022-11-21T22:44:12.597Z,14.90
2022-11-21T22:46:40.027Z,13.48
2022-11-21T22:49:07.385Z,11.95
2022-11-21T22:51:34.793Z,11.00
2022-11-21T22:54:02.179Z,11.52
2022-11-21T22:56:29.583Z,11.35
2022-11-21T22:58:57.070Z,10.23
2022-11-21T23:01:26.118Z,11.43
2022-11-21T23:03:55.719Z,10.45
2022-11-21T23:06:26.086Z,10.43
2022-11-21T23:08:55.351Z,10.27
2022-11-21T23:11:28.102Z,9.90
2022-11-21T23:13:56.622Z,9.35
2022-11-21T23:16:25.137Z,8.77
2022-11-21T23:18:54.009Z,10.00
2022-11-21T23:21:22.197Z,9.18
2022-11-21T23:23:49.706Z,9.10
2022-11-21T23:26:17.225Z,9.52
2022-11-21T23:28:44.666Z,9.38
2022-11-21T23:31:12.191Z,8.25
2022-11-21T23:33:39.634Z,9.15
2022-11-21T23:36:07.199Z,8.88
2022-11-21T23:38:34.819Z,8.38
2022-11-21T23:41:02.285Z,8.52
2022-11-21T23:43:29.760Z,8.77
2022-11-21T23:45:57.181Z,8.02
2022-11-21T23:48:24.863Z,7.72
2022-11-21T23:50:52.685Z,7.97
2022-11-21T23:53:20.702Z,7.55
2022-11-21T23:55:48.621Z,8.05
2022-11-21T23:58:16.813Z,8.18
